sensor_id;sensor_type;location;lat;lon;timestamp;P1;durP1;ratioP1;P2;durP2;ratioP2
51499;SDS011;39101;53.478;6.158;2023-05-13T00:00:12;14.73;;;8.82;;
51499;SDS011;39101;53.478;6.158;2023-05-13T00:02:38;14.32;;;9.98;;
51499;SDS011;39101;53.478;6.158;2023-05-13T00:05:04;14.18;;;10.40;;
51499;SDS011;39101;53.478;6.158;2023-05-13T00:07:30;12.93;;;10.10;;
51499;SDS011;39101;53.478;6.158;2023-05-13T00:09:56;14.13;;;9.93;;
51499;SDS011;39101;53.478;6.158;2023-05-13T00:12:22;15.23;;;9.80;;
51499;SDS011;39101;53.478;6.158;2023-05-13T00:14:48;13.63;;;9.90;;
51499;SDS011;39101;53.478;6.158;2023-05-13T00:17:13;15.00;;;9.25;;
51499;SDS011;39101;53.478;6.158;2023-05-13T00:19:39;14.35;;;8.40;;
51499;SDS011;39101;53.478;6.158;2023-05-13T00:22:05;12.68;;;9.23;;
51499;SDS011;39101;53.478;6.158;2023-05-13T00:24:31;16.80;;;8.57;;
51499;SDS011;39101;53.478;6.158;2023-05-13T00:26:57;13.93;;;10.88;;
51499;SDS011;39101;53.478;6.158;2023-05-13T00:29:23;10.57;;;8.82;;
51499;SDS011;39101;53.478;6.158;2023-05-13T00:31:48;11.18;;;9.13;;
51499;SDS011;39101;53.478;6.158;2023-05-13T00:34:15;10.38;;;8.32;;
51499;SDS011;39101;53.478;6.158;2023-05-13T00:36:42;10.55;;;8.88;;
51499;SDS011;39101;53.478;6.158;2023-05-13T00:39:08;15.05;;;8.60;;
51499;SDS011;39101;53.478;6.158;2023-05-13T00:41:35;13.93;;;8.85;;
51499;SDS011;39101;53.478;6.158;2023-05-13T00:44:01;10.20;;;8.93;;
51499;SDS011;39101;53.478;6.158;2023-05-13T00:46:29;13.23;;;9.38;;
51499;SDS011;39101;53.478;6.158;2023-05-13T00:48:56;13.57;;;9.70;;
51499;SDS011;39101;53.478;6.158;2023-05-13T00:51:23;13.10;;;9.52;;
51499;SDS011;39101;53.478;6.158;2023-05-13T00:53:49;13.05;;;10.48;;
51499;SDS011;39101;53.478;6.158;2023-05-13T00:56:19;14.15;;;9.23;;
51499;SDS011;39101;53.478;6.158;2023-05-13T00:58:48;15.05;;;9.18;;
51499;SDS011;39101;53.478;6.158;2023-05-13T01:01:29;14.95;;;9.65;;
51499;SDS011;39101;53.478;6.158;2023-05-13T01:04:13;15.50;;;9.90;;
51499;SDS011;39101;53.478;6.158;2023-05-13T01:09:50;13.75;;;11.40;;
51499;SDS011;39101;53.478;6.158;2023-05-13T01:12:42;13.85;;;10.80;;
51499;SDS011;39101;53.478;6.158;2023-05-13T01:15:22;14.68;;;10.70;;
51499;SDS011;39101;53.478;6.158;2023-05-13T01:18:01;19.85;;;10.23;;
51499;SDS011;39101;53.478;6.158;2023-05-13T01:20:31;14.05;;;9.57;;
51499;SDS011;39101;53.478;6.158;2023-05-13T01:22:58;15.85;;;9.27;;
51499;SDS011;39101;53.478;6.158;2023-05-13T01:25:24;13.60;;;9.07;;
51499;SDS011;39101;53.478;6.158;2023-05-13T01:27:50;12.13;;;9.25;;
51499;SDS011;39101;53.478;6.158;2023-05-13T01:30:17;13.43;;;9.68;;
51499;SDS011;39101;53.478;6.158;2023-05-13T01:32:44;10.80;;;9.27;;
51499;SDS011;39101;53.478;6.158;2023-05-13T01:35:10;15.93;;;10.00;;
51499;SDS011;39101;53.478;6.158;2023-05-13T01:37:36;13.35;;;9.05;;
51499;SDS011;39101;53.478;6.158;2023-05-13T01:40:03;13.13;;;8.05;;
51499;SDS011;39101;53.478;6.158;2023-05-13T01:42:31;15.43;;;8.68;;
51499;SDS011;39101;53.478;6.158;2023-05-13T01:44:58;10.80;;;8.43;;
51499;SDS011;39101;53.478;6.158;2023-05-13T01:47:24;11.43;;;7.85;;
51499;SDS011;39101;53.478;6.158;2023-05-13T01:49:49;14.57;;;8.65;;
51499;SDS011;39101;53.478;6.158;2023-05-13T01:52:15;11.32;;;6.95;;
51499;SDS011;39101;53.478;6.158;2023-05-13T01:54:41;10.43;;;7.53;;
51499;SDS011;39101;53.478;6.158;2023-05-13T01:57:06;11.48;;;8.52;;
51499;SDS011;39101;53.478;6.158;2023-05-13T01:59:32;15.82;;;8.70;;
51499;SDS011;39101;53.478;6.158;2023-05-13T02:01:58;15.70;;;8.50;;
51499;SDS011;39101;53.478;6.158;2023-05-13T02:04:23;12.95;;;7.95;;
51499;SDS011;39101;53.478;6.158;2023-05-13T02:06:49;14.45;;;8.65;;
51499;SDS011;39101;53.478;6.158;2023-05-13T02:09:15;9.23;;;6.95;;
51499;SDS011;39101;53.478;6.158;2023-05-13T02:11:41;10.57;;;6.78;;
51499;SDS011;39101;53.478;6.158;2023-05-13T02:14:06;17.13;;;7.55;;
51499;SDS011;39101;53.478;6.158;2023-05-13T02:16:32;12.07;;;6.95;;
51499;SDS011;39101;53.478;6.158;2023-05-13T02:18:58;12.13;;;7.75;;
51499;SDS011;39101;53.478;6.158;2023-05-13T02:21:24;11.43;;;7.55;;
51499;SDS011;39101;53.478;6.158;2023-05-13T02:23:50;10.45;;;6.60;;
51499;SDS011;39101;53.478;6.158;2023-05-13T02:26:15;18.77;;;8.35;;
51499;SDS011;39101;53.478;6.158;2023-05-13T02:28:41;9.27;;;6.55;;
51499;SDS011;39101;53.478;6.158;2023-05-13T02:31:08;11.10;;;6.88;;
51499;SDS011;39101;53.478;6.158;2023-05-13T02:33:34;11.15;;;7.15;;
51499;SDS011;39101;53.478;6.158;2023-05-13T02:35:59;12.35;;;7.68;;
51499;SDS011;39101;53.478;6.158;2023-05-13T02:38:25;8.05;;;6.20;;
51499;SDS011;39101;53.478;6.158;2023-05-13T02:40:51;12.80;;;7.15;;
51499;SDS011;39101;53.478;6.158;2023-05-13T02:43:16;12.38;;;6.32;;
51499;SDS011;39101;53.478;6.158;2023-05-13T02:45:42;12.93;;;6.55;;
51499;SDS011;39101;53.478;6.158;2023-05-13T02:48:08;10.40;;;5.95;;
51499;SDS011;39101;53.478;6.158;2023-05-13T02:50:35;15.32;;;7.07;;
51499;SDS011;39101;53.478;6.158;2023-05-13T02:53:00;9.73;;;5.85;;
51499;SDS011;39101;53.478;6.158;2023-05-13T02:55:26;10.93;;;5.72;;
51499;SDS011;39101;53.478;6.158;2023-05-13T02:57:52;9.70;;;6.22;;
51499;SDS011;39101;53.478;6.158;2023-05-13T03:00:18;10.95;;;6.10;;
51499;SDS011;39101;53.478;6.158;2023-05-13T03:02:43;8.43;;;5.50;;
51499;SDS011;39101;53.478;6.158;2023-05-13T03:05:09;9.93;;;5.80;;
51499;SDS011;39101;53.478;6.158;2023-05-13T03:07:35;12.38;;;5.90;;
51499;SDS011;39101;53.478;6.158;2023-05-13T03:10:00;10.95;;;6.18;;
51499;SDS011;39101;53.478;6.158;2023-05-13T03:12:26;9.68;;;6.50;;
51499;SDS011;39101;53.478;6.158;2023-05-13T03:14:52;11.80;;;6.85;;
51499;SDS011;39101;53.478;6.158;2023-05-13T03:17:18;12.23;;;6.63;;
51499;SDS011;39101;53.478;6.158;2023-05-13T03:19:43;10.82;;;6.70;;
51499;SDS011;39101;53.478;6.158;2023-05-13T03:22:09;12.32;;;6.70;;
51499;SDS011;39101;53.478;6.158;2023-05-13T03:24:34;13.30;;;6.95;;
51499;SDS011;39101;53.478;6.158;2023-05-13T03:27:00;10.70;;;7.60;;
51499;SDS011;39101;53.478;6.158;2023-05-13T03:29:26;10.40;;;8.13;;
51499;SDS011;39101;53.478;6.158;2023-05-13T03:31:51;10.85;;;8.15;;
51499;SDS011;39101;53.478;6.158;2023-05-13T03:34:17;15.50;;;10.43;;
51499;SDS011;39101;53.478;6.158;2023-05-13T03:36:43;11.88;;;7.53;;
51499;SDS011;39101;53.478;6.158;2023-05-13T03:39:08;13.27;;;8.13;;
51499;SDS011;39101;53.478;6.158;2023-05-13T03:41:34;11.07;;;7.35;;
51499;SDS011;39101;53.478;6.158;2023-05-13T03:44:00;11.80;;;6.97;;
51499;SDS011;39101;53.478;6.158;2023-05-13T03:46:26;11.23;;;7.65;;
51499;SDS011;39101;53.478;6.158;2023-05-13T03:48:52;9.05;;;6.97;;
51499;SDS011;39101;53.478;6.158;2023-05-13T03:51:19;10.90;;;7.60;;
51499;SDS011;39101;53.478;6.158;2023-05-13T03:53:45;11.73;;;8.07;;
51499;SDS011;39101;53.478;6.158;2023-05-13T03:56:11;14.10;;;7.50;;
51499;SDS011;39101;53.478;6.158;2023-05-13T03:58:37;9.70;;;6.60;;
51499;SDS011;39101;53.478;6.158;2023-05-13T04:01:03;11.77;;;7.38;;
51499;SDS011;39101;53.478;6.158;2023-05-13T04:03:29;11.02;;;7.40;;
51499;SDS011;39101;53.478;6.158;2023-05-13T04:05:55;10.52;;;7.32;;
51499;SDS011;39101;53.478;6.158;2023-05-13T04:08:21;11.35;;;7.22;;
51499;SDS011;39101;53.478;6.158;2023-05-13T04:10:46;12.70;;;6.97;;
51499;SDS011;39101;53.478;6.158;2023-05-13T04:13:12;11.15;;;7.35;;
51499;SDS011;39101;53.478;6.158;2023-05-13T04:15:38;12.13;;;8.20;;
51499;SDS011;39101;53.478;6.158;2023-05-13T04:18:03;9.80;;;7.22;;
51499;SDS011;39101;53.478;6.158;2023-05-13T04:20:29;11.63;;;7.20;;
51499;SDS011;39101;53.478;6.158;2023-05-13T04:22:55;9.52;;;6.88;;
51499;SDS011;39101;53.478;6.158;2023-05-13T04:25:20;15.65;;;7.63;;
51499;SDS011;39101;53.478;6.158;2023-05-13T04:27:46;10.77;;;6.60;;
51499;SDS011;39101;53.478;6.158;2023-05-13T04:30:12;10.02;;;6.35;;
51499;SDS011;39101;53.478;6.158;2023-05-13T04:32:38;14.15;;;6.65;;
51499;SDS011;39101;53.478;6.158;2023-05-13T04:35:05;12.02;;;7.10;;
51499;SDS011;39101;53.478;6.158;2023-05-13T04:37:31;9.07;;;5.85;;
51499;SDS011;39101;53.478;6.158;2023-05-13T04:39:57;11.63;;;6.18;;
51499;SDS011;39101;53.478;6.158;2023-05-13T04:42:23;10.85;;;6.78;;
51499;SDS011;39101;53.478;6.158;2023-05-13T04:44:48;9.27;;;6.57;;
51499;SDS011;39101;53.478;6.158;2023-05-13T04:47:14;11.00;;;7.00;;
51499;SDS011;39101;53.478;6.158;2023-05-13T04:49:40;12.52;;;6.70;;
51499;SDS011;39101;53.478;6.158;2023-05-13T04:52:06;10.15;;;6.40;;
51499;SDS011;39101;53.478;6.158;2023-05-13T04:54:32;8.40;;;6.28;;
51499;SDS011;39101;53.478;6.158;2023-05-13T04:57:00;8.27;;;6.07;;
51499;SDS011;39101;53.478;6.158;2023-05-13T04:59:26;11.57;;;6.93;;
51499;SDS011;39101;53.478;6.158;2023-05-13T05:01:52;11.55;;;5.93;;
51499;SDS011;39101;53.478;6.158;2023-05-13T05:04:18;10.77;;;6.45;;
51499;SDS011;39101;53.478;6.158;2023-05-13T05:06:44;12.77;;;6.72;;
51499;SDS011;39101;53.478;6.158;2023-05-13T05:09:13;12.00;;;6.00;;
51499;SDS011;39101;53.478;6.158;2023-05-13T05:11:39;12.23;;;5.75;;
51499;SDS011;39101;53.478;6.158;2023-05-13T05:14:04;10.02;;;5.93;;
51499;SDS011;39101;53.478;6.158;2023-05-13T05:16:30;11.27;;;5.72;;
51499;SDS011;39101;53.478;6.158;2023-05-13T05:18:55;12.45;;;6.60;;
51499;SDS011;39101;53.478;6.158;2023-05-13T05:21:21;10.15;;;5.40;;
51499;SDS011;39101;53.478;6.158;2023-05-13T05:23:47;7.53;;;5.50;;
51499;SDS011;39101;53.478;6.158;2023-05-13T05:26:13;7.47;;;5.50;;
51499;SDS011;39101;53.478;6.158;2023-05-13T05:28:40;9.50;;;5.60;;
51499;SDS011;39101;53.478;6.158;2023-05-13T05:31:07;11.43;;;5.25;;
51499;SDS011;39101;53.478;6.158;2023-05-13T05:33:33;9.65;;;5.65;;
51499;SDS011;39101;53.478;6.158;2023-05-13T05:36:00;13.10;;;5.20;;
51499;SDS011;39101;53.478;6.158;2023-05-13T05:38:26;10.20;;;7.07;;
51499;SDS011;39101;53.478;6.158;2023-05-13T05:40:51;11.77;;;6.35;;
51499;SDS011;39101;53.478;6.158;2023-05-13T05:43:17;9.18;;;6.00;;
51499;SDS011;39101;53.478;6.158;2023-05-13T05:45:43;12.95;;;5.43;;
51499;SDS011;39101;53.478;6.158;2023-05-13T05:48:09;9.63;;;5.90;;
51499;SDS011;39101;53.478;6.158;2023-05-13T05:50:35;11.63;;;6.18;;
51499;SDS011;39101;53.478;6.158;2023-05-13T05:53:01;13.80;;;6.13;;
51499;SDS011;39101;53.478;6.158;2023-05-13T05:55:28;11.25;;;5.55;;
51499;SDS011;39101;53.478;6.158;2023-05-13T05:57:56;11.65;;;6.30;;
51499;SDS011;39101;53.478;6.158;2023-05-13T06:00:22;11.02;;;6.05;;
51499;SDS011;39101;53.478;6.158;2023-05-13T06:02:48;10.52;;;6.13;;
51499;SDS011;39101;53.478;6.158;2023-05-13T06:05:14;11.73;;;6.50;;
51499;SDS011;39101;53.478;6.158;2023-05-13T06:07:40;8.35;;;5.47;;
51499;SDS011;39101;53.478;6.158;2023-05-13T06:10:06;8.82;;;5.78;;
51499;SDS011;39101;53.478;6.158;2023-05-13T06:12:32;9.60;;;6.35;;
51499;SDS011;39101;53.478;6.158;2023-05-13T06:14:59;13.90;;;6.30;;
51499;SDS011;39101;53.478;6.158;2023-05-13T06:17:25;10.27;;;6.10;;
51499;SDS011;39101;53.478;6.158;2023-05-13T06:19:51;11.20;;;5.82;;
51499;SDS011;39101;53.478;6.158;2023-05-13T06:22:17;10.30;;;5.93;;
51499;SDS011;39101;53.478;6.158;2023-05-13T06:24:42;14.32;;;5.78;;
51499;SDS011;39101;53.478;6.158;2023-05-13T06:27:12;8.00;;;5.85;;
51499;SDS011;39101;53.478;6.158;2023-05-13T06:29:38;12.43;;;6.38;;
51499;SDS011;39101;53.478;6.158;2023-05-13T06:32:03;12.65;;;6.13;;
51499;SDS011;39101;53.478;6.158;2023-05-13T06:34:29;11.70;;;6.13;;
51499;SDS011;39101;53.478;6.158;2023-05-13T06:36:56;11.23;;;5.97;;
51499;SDS011;39101;53.478;6.158;2023-05-13T06:39:21;12.43;;;5.85;;
51499;SDS011;39101;53.478;6.158;2023-05-13T06:41:47;12.18;;;6.10;;
51499;SDS011;39101;53.478;6.158;2023-05-13T06:44:13;7.70;;;5.95;;
51499;SDS011;39101;53.478;6.158;2023-05-13T06:46:38;9.02;;;5.97;;
51499;SDS011;39101;53.478;6.158;2023-05-13T06:49:04;7.32;;;5.93;;
51499;SDS011;39101;53.478;6.158;2023-05-13T06:51:30;9.23;;;5.38;;
51499;SDS011;39101;53.478;6.158;2023-05-13T06:53:57;8.68;;;6.32;;
51499;SDS011;39101;53.478;6.158;2023-05-13T06:56:23;13.43;;;5.47;;
51499;SDS011;39101;53.478;6.158;2023-05-13T06:58:50;16.00;;;6.18;;
51499;SDS011;39101;53.478;6.158;2023-05-13T07:01:18;12.18;;;6.20;;
51499;SDS011;39101;53.478;6.158;2023-05-13T07:03:44;10.55;;;6.00;;
51499;SDS011;39101;53.478;6.158;2023-05-13T07:06:10;10.60;;;5.68;;
51499;SDS011;39101;53.478;6.158;2023-05-13T07:08:36;10.15;;;5.82;;
51499;SDS011;39101;53.478;6.158;2023-05-13T07:11:02;14.20;;;6.88;;
51499;SDS011;39101;53.478;6.158;2023-05-13T07:13:28;9.25;;;5.38;;
51499;SDS011;39101;53.478;6.158;2023-05-13T07:15:57;9.10;;;6.85;;
51499;SDS011;39101;53.478;6.158;2023-05-13T07:18:23;11.57;;;6.85;;
51499;SDS011;39101;53.478;6.158;2023-05-13T07:20:48;11.23;;;6.65;;
51499;SDS011;39101;53.478;6.158;2023-05-13T07:23:14;11.23;;;6.47;;
51499;SDS011;39101;53.478;6.158;2023-05-13T07:25:40;14.70;;;7.13;;
51499;SDS011;39101;53.478;6.158;2023-05-13T07:28:05;11.30;;;6.25;;
51499;SDS011;39101;53.478;6.158;2023-05-13T07:30:31;13.43;;;6.65;;
51499;SDS011;39101;53.478;6.158;2023-05-13T07:32:56;15.02;;;7.40;;
51499;SDS011;39101;53.478;6.158;2023-05-13T07:35:22;10.73;;;6.43;;
51499;SDS011;39101;53.478;6.158;2023-05-13T07:37:48;12.00;;;5.85;;
51499;SDS011;39101;53.478;6.158;2023-05-13T07:40:14;12.02;;;5.97;;
51499;SDS011;39101;53.478;6.158;2023-05-13T07:42:39;10.43;;;6.70;;
51499;SDS011;39101;53.478;6.158;2023-05-13T07:45:08;9.90;;;5.60;;
51499;SDS011;39101;53.478;6.158;2023-05-13T07:47:35;13.30;;;7.43;;
51499;SDS011;39101;53.478;6.158;2023-05-13T07:50:00;12.52;;;6.13;;
51499;SDS011;39101;53.478;6.158;2023-05-13T07:52:26;13.68;;;6.82;;
51499;SDS011;39101;53.478;6.158;2023-05-13T07:54:52;11.05;;;6.20;;
51499;SDS011;39101;53.478;6.158;2023-05-13T07:57:18;7.95;;;5.82;;
51499;SDS011;39101;53.478;6.158;2023-05-13T07:59:44;14.10;;;6.15;;
51499;SDS011;39101;53.478;6.158;2023-05-13T08:02:10;8.32;;;5.68;;
51499;SDS011;39101;53.478;6.158;2023-05-13T08:04:36;8.52;;;5.95;;
51499;SDS011;39101;53.478;6.158;2023-05-13T08:07:02;11.02;;;6.57;;
51499;SDS011;39101;53.478;6.158;2023-05-13T08:09:28;10.18;;;6.57;;
51499;SDS011;39101;53.478;6.158;2023-05-13T08:11:54;14.35;;;6.38;;
51499;SDS011;39101;53.478;6.158;2023-05-13T08:14:20;12.57;;;6.32;;
51499;SDS011;39101;53.478;6.158;2023-05-13T08:16:46;11.93;;;5.95;;
51499;SDS011;39101;53.478;6.158;2023-05-13T08:19:12;15.68;;;6.15;;
51499;SDS011;39101;53.478;6.158;2023-05-13T08:21:39;9.00;;;5.78;;
51499;SDS011;39101;53.478;6.158;2023-05-13T08:24:04;14.32;;;6.57;;
51499;SDS011;39101;53.478;6.158;2023-05-13T08:26:30;13.27;;;7.10;;
51499;SDS011;39101;53.478;6.158;2023-05-13T08:28:56;14.00;;;7.50;;
51499;SDS011;39101;53.478;6.158;2023-05-13T08:31:22;10.13;;;5.80;;
51499;SDS011;39101;53.478;6.158;2023-05-13T08:33:49;10.82;;;6.57;;
51499;SDS011;39101;53.478;6.158;2023-05-13T08:36:15;7.63;;;5.93;;
51499;SDS011;39101;53.478;6.158;2023-05-13T08:38:41;9.75;;;6.50;;
51499;SDS011;39101;53.478;6.158;2023-05-13T08:41:08;9.02;;;6.20;;
51499;SDS011;39101;53.478;6.158;2023-05-13T08:43:43;11.68;;;6.45;;
51499;SDS011;39101;53.478;6.158;2023-05-13T08:46:12;12.75;;;7.20;;
51499;SDS011;39101;53.478;6.158;2023-05-13T08:48:41;11.27;;;5.65;;
51499;SDS011;39101;53.478;6.158;2023-05-13T08:51:07;11.05;;;6.80;;
51499;SDS011;39101;53.478;6.158;2023-05-13T08:53:34;10.20;;;6.60;;
51499;SDS011;39101;53.478;6.158;2023-05-13T08:56:00;12.05;;;6.88;;
51499;SDS011;39101;53.478;6.158;2023-05-13T08:58:26;8.90;;;5.97;;
51499;SDS011;39101;53.478;6.158;2023-05-13T09:00:52;13.82;;;7.13;;
51499;SDS011;39101;53.478;6.158;2023-05-13T09:03:18;11.38;;;6.10;;
51499;SDS011;39101;53.478;6.158;2023-05-13T09:05:45;11.07;;;6.75;;
51499;SDS011;39101;53.478;6.158;2023-05-13T09:08:11;11.57;;;6.68;;
51499;SDS011;39101;53.478;6.158;2023-05-13T09:10:37;10.00;;;6.30;;
51499;SDS011;39101;53.478;6.158;2023-05-13T09:13:03;12.35;;;6.28;;
51499;SDS011;39101;53.478;6.158;2023-05-13T09:15:29;11.25;;;6.63;;
51499;SDS011;39101;53.478;6.158;2023-05-13T09:20:23;10.25;;;6.03;;
51499;SDS011;39101;53.478;6.158;2023-05-13T09:22:55;9.43;;;6.05;;
51499;SDS011;39101;53.478;6.158;2023-05-13T09:25:27;14.38;;;7.15;;
51499;SDS011;39101;53.478;6.158;2023-05-13T09:27:59;9.98;;;5.78;;
51499;SDS011;39101;53.478;6.158;2023-05-13T09:30:27;10.70;;;6.90;;
51499;SDS011;39101;53.478;6.158;2023-05-13T09:35:30;9.10;;;6.07;;
51499;SDS011;39101;53.478;6.158;2023-05-13T09:37:56;8.57;;;5.90;;
51499;SDS011;39101;53.478;6.158;2023-05-13T09:40:22;10.68;;;6.72;;
51499;SDS011;39101;53.478;6.158;2023-05-13T09:42:48;10.32;;;6.20;;
51499;SDS011;39101;53.478;6.158;2023-05-13T09:45:14;8.68;;;6.32;;
51499;SDS011;39101;53.478;6.158;2023-05-13T09:47:41;11.00;;;6.30;;
51499;SDS011;39101;53.478;6.158;2023-05-13T09:50:08;9.75;;;6.53;;
51499;SDS011;39101;53.478;6.158;2023-05-13T09:52:36;12.55;;;6.38;;
51499;SDS011;39101;53.478;6.158;2023-05-13T09:55:03;14.43;;;6.75;;
51499;SDS011;39101;53.478;6.158;2023-05-13T09:57:33;12.00;;;7.10;;
51499;SDS011;39101;53.478;6.158;2023-05-13T09:59:59;11.73;;;7.10;;
51499;SDS011;39101;53.478;6.158;2023-05-13T10:02:26;14.00;;;6.43;;
51499;SDS011;39101;53.478;6.158;2023-05-13T10:04:53;11.43;;;7.22;;
51499;SDS011;39101;53.478;6.158;2023-05-13T10:07:22;11.07;;;6.78;;
51499;SDS011;39101;53.478;6.158;2023-05-13T10:09:56;12.70;;;7.53;;
51499;SDS011;39101;53.478;6.158;2023-05-13T10:12:24;12.07;;;6.88;;
51499;SDS011;39101;53.478;6.158;2023-05-13T10:14:51;12.48;;;7.60;;
51499;SDS011;39101;53.478;6.158;2023-05-13T10:17:21;16.27;;;7.95;;
51499;SDS011;39101;53.478;6.158;2023-05-13T10:19:49;11.40;;;7.53;;
51499;SDS011;39101;53.478;6.158;2023-05-13T10:22:20;11.93;;;6.82;;
51499;SDS011;39101;53.478;6.158;2023-05-13T10:24:57;11.98;;;7.22;;
51499;SDS011;39101;53.478;6.158;2023-05-13T10:27:28;12.90;;;7.93;;
51499;SDS011;39101;53.478;6.158;2023-05-13T10:29:55;16.92;;;7.35;;
51499;SDS011;39101;53.478;6.158;2023-05-13T10:32:25;10.90;;;6.38;;
51499;SDS011;39101;53.478;6.158;2023-05-13T10:35:01;12.48;;;8.05;;
51499;SDS011;39101;53.478;6.158;2023-05-13T10:45:43;14.30;;;7.40;;
51499;SDS011;39101;53.478;6.158;2023-05-13T10:48:13;12.98;;;8.57;;
51499;SDS011;39101;53.478;6.158;2023-05-13T10:50:48;12.13;;;7.60;;
51499;SDS011;39101;53.478;6.158;2023-05-13T10:53:24;11.00;;;7.10;;
51499;SDS011;39101;53.478;6.158;2023-05-13T10:55:52;12.10;;;8.07;;
51499;SDS011;39101;53.478;6.158;2023-05-13T10:58:20;13.75;;;7.88;;
51499;SDS011;39101;53.478;6.158;2023-05-13T11:00:52;12.50;;;7.78;;
51499;SDS011;39101;53.478;6.158;2023-05-13T11:05:44;9.20;;;6.70;;
51499;SDS011;39101;53.478;6.158;2023-05-13T11:11:23;10.93;;;6.70;;
51499;SDS011;39101;53.478;6.158;2023-05-13T11:13:51;11.35;;;8.02;;
51499;SDS011;39101;53.478;6.158;2023-05-13T11:16:29;12.52;;;7.88;;
51499;SDS011;39101;53.478;6.158;2023-05-13T11:18:55;10.40;;;7.13;;
51499;SDS011;39101;53.478;6.158;2023-05-13T11:21:28;10.25;;;8.20;;
51499;SDS011;39101;53.478;6.158;2023-05-13T11:24:03;13.93;;;7.82;;
51499;SDS011;39101;53.478;6.158;2023-05-13T11:27:11;13.82;;;7.45;;
51499;SDS011;39101;53.478;6.158;2023-05-13T11:32:03;9.23;;;7.60;;
51499;SDS011;39101;53.478;6.158;2023-05-13T11:34:30;12.02;;;7.95;;
51499;SDS011;39101;53.478;6.158;2023-05-13T11:39:29;12.02;;;7.70;;
51499;SDS011;39101;53.478;6.158;2023-05-13T11:41:55;9.25;;;7.78;;
51499;SDS011;39101;53.478;6.158;2023-05-13T11:44:24;14.35;;;8.32;;
51499;SDS011;39101;53.478;6.158;2023-05-13T11:46:51;13.63;;;6.78;;
51499;SDS011;39101;53.478;6.158;2023-05-13T11:52:03;13.90;;;7.20;;
51499;SDS011;39101;53.478;6.158;2023-05-13T11:57:12;13.27;;;8.23;;
51499;SDS011;39101;53.478;6.158;2023-05-13T11:59:53;10.75;;;7.60;;
51499;SDS011;39101;53.478;6.158;2023-05-13T12:02:23;16.30;;;8.48;;
51499;SDS011;39101;53.478;6.158;2023-05-13T12:04:50;12.88;;;7.20;;
51499;SDS011;39101;53.478;6.158;2023-05-13T12:07:20;9.77;;;7.28;;
51499;SDS011;39101;53.478;6.158;2023-05-13T12:09:50;11.25;;;7.75;;
51499;SDS011;39101;53.478;6.158;2023-05-13T12:12:17;11.55;;;7.55;;
51499;SDS011;39101;53.478;6.158;2023-05-13T12:14:44;9.60;;;7.53;;
51499;SDS011;39101;53.478;6.158;2023-05-13T12:19:58;13.52;;;7.43;;
51499;SDS011;39101;53.478;6.158;2023-05-13T12:28:06;14.70;;;8.18;;
51499;SDS011;39101;53.478;6.158;2023-05-13T12:30:33;12.00;;;7.78;;
51499;SDS011;39101;53.478;6.158;2023-05-13T12:33:00;9.90;;;6.28;;
51499;SDS011;39101;53.478;6.158;2023-05-13T12:35:25;9.55;;;6.78;;
51499;SDS011;39101;53.478;6.158;2023-05-13T12:38:01;9.48;;;7.40;;
51499;SDS011;39101;53.478;6.158;2023-05-13T12:40:28;12.65;;;6.55;;
51499;SDS011;39101;53.478;6.158;2023-05-13T12:42:58;12.18;;;7.22;;
51499;SDS011;39101;53.478;6.158;2023-05-13T12:45:26;10.55;;;6.85;;
51499;SDS011;39101;53.478;6.158;2023-05-13T12:47:55;9.63;;;6.50;;
51499;SDS011;39101;53.478;6.158;2023-05-13T12:50:22;11.93;;;6.47;;
51499;SDS011;39101;53.478;6.158;2023-05-13T12:52:48;10.90;;;6.53;;
51499;SDS011;39101;53.478;6.158;2023-05-13T12:55:13;10.90;;;6.57;;
51499;SDS011;39101;53.478;6.158;2023-05-13T12:57:39;10.90;;;6.68;;
51499;SDS011;39101;53.478;6.158;2023-05-13T13:00:06;10.48;;;6.35;;
51499;SDS011;39101;53.478;6.158;2023-05-13T13:02:34;12.95;;;6.47;;
51499;SDS011;39101;53.478;6.158;2023-05-13T13:05:01;13.57;;;8.75;;
51499;SDS011;39101;53.478;6.158;2023-05-13T13:07:27;9.18;;;6.57;;
51499;SDS011;39101;53.478;6.158;2023-05-13T13:09:53;13.07;;;7.10;;
51499;SDS011;39101;53.478;6.158;2023-05-13T13:12:19;12.55;;;7.60;;
51499;SDS011;39101;53.478;6.158;2023-05-13T13:14:45;10.70;;;7.28;;
51499;SDS011;39101;53.478;6.158;2023-05-13T13:17:11;13.48;;;6.97;;
51499;SDS011;39101;53.478;6.158;2023-05-13T13:19:36;11.75;;;6.80;;
51499;SDS011;39101;53.478;6.158;2023-05-13T13:22:02;13.60;;;7.47;;
51499;SDS011;39101;53.478;6.158;2023-05-13T13:24:28;10.82;;;7.15;;
51499;SDS011;39101;53.478;6.158;2023-05-13T13:26:53;10.75;;;6.53;;
51499;SDS011;39101;53.478;6.158;2023-05-13T13:29:19;12.10;;;7.38;;
51499;SDS011;39101;53.478;6.158;2023-05-13T13:31:45;9.20;;;7.10;;
51499;SDS011;39101;53.478;6.158;2023-05-13T13:34:11;9.98;;;7.53;;
51499;SDS011;39101;53.478;6.158;2023-05-13T13:36:37;9.15;;;7.05;;
51499;SDS011;39101;53.478;6.158;2023-05-13T13:39:03;11.63;;;7.97;;
51499;SDS011;39101;53.478;6.158;2023-05-13T13:41:29;14.63;;;8.43;;
51499;SDS011;39101;53.478;6.158;2023-05-13T13:43:55;12.45;;;7.78;;
51499;SDS011;39101;53.478;6.158;2023-05-13T13:46:21;11.82;;;7.18;;
51499;SDS011;39101;53.478;6.158;2023-05-13T13:48:46;12.27;;;7.40;;
51499;SDS011;39101;53.478;6.158;2023-05-13T13:51:12;10.30;;;7.25;;
51499;SDS011;39101;53.478;6.158;2023-05-13T13:53:38;10.48;;;7.90;;
51499;SDS011;39101;53.478;6.158;2023-05-13T13:56:03;15.40;;;7.43;;
51499;SDS011;39101;53.478;6.158;2023-05-13T13:58:29;9.77;;;7.13;;
51499;SDS011;39101;53.478;6.158;2023-05-13T14:00:55;13.32;;;7.53;;
51499;SDS011;39101;53.478;6.158;2023-05-13T14:03:20;10.65;;;7.80;;
51499;SDS011;39101;53.478;6.158;2023-05-13T14:05:47;12.65;;;7.45;;
51499;SDS011;39101;53.478;6.158;2023-05-13T14:08:12;14.27;;;8.27;;
51499;SDS011;39101;53.478;6.158;2023-05-13T14:10:38;9.95;;;7.65;;
51499;SDS011;39101;53.478;6.158;2023-05-13T14:13:04;13.13;;;8.13;;
51499;SDS011;39101;53.478;6.158;2023-05-13T14:15:30;15.38;;;9.55;;
51499;SDS011;39101;53.478;6.158;2023-05-13T14:17:56;14.07;;;8.52;;
51499;SDS011;39101;53.478;6.158;2023-05-13T14:20:22;15.45;;;9.65;;
51499;SDS011;39101;53.478;6.158;2023-05-13T14:22:49;15.05;;;7.97;;
51499;SDS011;39101;53.478;6.158;2023-05-13T14:25:14;12.88;;;8.10;;
51499;SDS011;39101;53.478;6.158;2023-05-13T14:27:40;8.77;;;7.03;;
51499;SDS011;39101;53.478;6.158;2023-05-13T14:30:06;12.05;;;8.18;;
51499;SDS011;39101;53.478;6.158;2023-05-13T14:32:33;14.07;;;8.15;;
51499;SDS011;39101;53.478;6.158;2023-05-13T14:34:58;14.05;;;7.72;;
51499;SDS011;39101;53.478;6.158;2023-05-13T14:37:24;9.18;;;7.07;;
51499;SDS011;39101;53.478;6.158;2023-05-13T14:39:50;12.05;;;7.25;;
51499;SDS011;39101;53.478;6.158;2023-05-13T14:42:16;12.20;;;7.28;;
51499;SDS011;39101;53.478;6.158;2023-05-13T14:44:42;10.43;;;7.70;;
51499;SDS011;39101;53.478;6.158;2023-05-13T14:47:07;12.27;;;7.70;;
51499;SDS011;39101;53.478;6.158;2023-05-13T14:49:34;10.60;;;7.00;;
51499;SDS011;39101;53.478;6.158;2023-05-13T14:51:59;10.80;;;7.28;;
51499;SDS011;39101;53.478;6.158;2023-05-13T14:54:25;13.55;;;7.95;;
51499;SDS011;39101;53.478;6.158;2023-05-13T14:56:51;13.88;;;8.15;;
51499;SDS011;39101;53.478;6.158;2023-05-13T14:59:17;11.90;;;8.80;;
51499;SDS011;39101;53.478;6.158;2023-05-13T15:01:43;13.65;;;8.98;;
51499;SDS011;39101;53.478;6.158;2023-05-13T15:04:09;11.75;;;9.23;;
51499;SDS011;39101;53.478;6.158;2023-05-13T15:06:35;12.13;;;9.10;;
51499;SDS011;39101;53.478;6.158;2023-05-13T15:09:01;15.15;;;9.50;;
51499;SDS011;39101;53.478;6.158;2023-05-13T15:11:27;11.38;;;9.18;;
51499;SDS011;39101;53.478;6.158;2023-05-13T15:13:53;12.27;;;9.20;;